LYBE/BEG METAR and TAF weather

Enter ICAO airport designator
Station Type Date Time Source
LYBE METAR 2020/01/21 15:30 UTC NOAA

LYBE 211530Z VRB01KT 8000 BKN025 03/M02 Q1043 NOSIG


Station Type Date Time Source
LYBE Decoded METAR 2020/01/21 15:30 UTC NOAA

Beograd / Surcin, Serbia and Montenegro (LYBE) 44-49N 020-17E 99M
Jan 21, 2020 - 10:30 AM EST / 2020.01.21 1530 UTC
Wind: Variable at 1 MPH (1 KT):0
Visibility: 4 mile(s):0
Sky conditions: mostly cloudy
Temperature: 37 F (3 C)
Dew Point: 28 F (-2 C)
Relative Humidity: 69%
Pressure (altimeter): 30.80 in. Hg (1043 hPa)
ob: LYBE 211530Z VRB01KT 8000 BKN025 03/M02 Q1043 NOSIG
cycle: 15

Station Type Date Time Source
LYBE TAF 2020/01/21 12:21 UTC NOAA

TAF LYBE 211100Z 2112/2212 26005KT 4000 BR FEW007 BKN030 TX04/2212Z TNM03/2206Z
TEMPO 2112/2115 6000 NSW
BECMG 2120/2122 1500 BR BKN005 PROB30
TEMPO 2203/2206 0600 FZFG VV002
BECMG 2209/2211 6000 NSW

Example: see airport list